Time;durP1;ratioP1;P1;durP2;ratioP2;P2;SDS_P1;SDS_P2;PMS_P1;PMS_P2;Temp;Humidity;BMP_temperature;BMP_pressure;BME280_temperature;BME280_humidity;BME280_pressure;Samples;Min_cycle;Max_cycle;Signal;HPM_P1;HPM_P2
2023/05/27 00:02:21;;;;;;;12.93;7.07;;;25.50;99.90;;;;;;5055009;28;20064;-60
2023/05/27 00:04:47;;;;;;;10.15;7.13;;;25.50;99.90;;;;;;5072987;28;20070;-57
2023/05/27 00:07:13;;;;;;;13.70;7.60;;;25.60;99.90;;;;;;5055119;28;20028;-60
2023/05/27 00:09:39;;;;;;;13.90;7.47;;;25.60;99.90;;;;;;5073040;28;20047;-61
2023/05/27 00:12:05;;;;;;;13.13;7.35;;;25.50;99.90;;;;;;5072691;28;20115;-61
2023/05/27 00:14:30;;;;;;;12.38;8.02;;;25.50;99.90;;;;;;5054586;28;20025;-62
2023/05/27 00:16:56;;;;;;;16.80;9.20;;;25.50;99.90;;;;;;5072306;28;20021;-61
2023/05/27 00:19:24;;;;;;;14.07;7.50;;;25.50;99.90;;;;;;5072534;28;20028;-57
2023/05/27 00:21:52;;;;;;;;;;;25.50;99.90;;;;;;5073103;28;20414;-60
2023/05/27 00:24:18;;;;;;;14.57;9.20;;;25.50;99.90;;;;;;5072767;28;19957;-62
2023/05/27 00:26:44;;;;;;;16.75;10.45;;;25.50;99.90;;;;;;5072419;28;20016;-59
2023/05/27 00:29:10;;;;;;;17.15;10.80;;;25.40;99.90;;;;;;5072924;28;20043;-61
2023/05/27 00:31:35;;;;;;;19.80;11.48;;;25.50;99.90;;;;;;5073053;28;20048;-62
2023/05/27 00:34:02;;;;;;;20.52;11.60;;;25.40;99.90;;;;;;5072499;28;20031;-61
2023/05/27 00:36:28;;;;;;;19.02;12.77;;;25.40;99.90;;;;;;5072769;28;20016;-59
2023/05/27 00:38:53;;;;;;;21.42;11.82;;;25.40;99.90;;;;;;5072762;28;20029;-61
2023/05/27 00:41:19;;;;;;;17.73;11.50;;;25.40;99.90;;;;;;5072555;28;20465;-61
2023/05/27 00:43:45;;;;;;;19.08;11.50;;;25.40;99.90;;;;;;5054227;28;20029;-61
2023/05/27 00:46:11;;;;;;;19.13;12.25;;;25.40;99.90;;;;;;5054776;28;20468;-59
2023/05/27 00:48:37;;;;;;;17.40;11.13;;;25.40;99.90;;;;;;5072102;28;20025;-60
2023/05/27 00:51:03;;;;;;;19.83;12.07;;;25.40;99.90;;;;;;5067804;28;20298;-60
2023/05/27 00:53:38;;;;;;;20.45;12.80;;;25.40;99.90;;;;;;5052414;28;20362;-60
2023/05/27 00:56:05;;;;;;;17.05;12.70;;;25.40;99.90;;;;;;5052365;28;20028;-60
2023/05/27 00:58:31;;;;;;;21.17;13.77;;;25.40;99.90;;;;;;5051506;28;20541;-60
2023/05/27 01:00:58;;;;;;;19.60;13.15;;;25.40;99.90;;;;;;5034127;28;20045;-60
2023/05/27 01:03:24;;;;;;;20.48;14.68;;;25.40;99.90;;;;;;5052963;28;20033;-60
2023/05/27 01:06:00;;;;;;;20.73;13.63;;;25.30;99.90;;;;;;5055607;28;20032;-60
2023/05/27 01:08:46;;;;;;;20.50;14.27;;;25.30;99.90;;;;;;5056161;28;20024;-61
2023/05/27 01:11:15;;;;;;;21.75;15.57;;;25.30;99.90;;;;;;5056280;28;20027;-61
2023/05/27 01:13:52;;;;;;;19.98;14.73;;;25.30;99.90;;;;;;5056402;28;20048;-59
2023/05/27 01:16:18;;;;;;;22.42;15.60;;;25.30;99.90;;;;;;5056180;28;20396;-59
2023/05/27 01:18:49;;;;;;;23.10;14.75;;;25.30;99.90;;;;;;5056143;28;20080;-60
2023/05/27 01:21:18;;;;;;;19.25;14.15;;;25.30;99.90;;;;;;5056104;28;20446;-60
2023/05/27 01:23:47;;;;;;;21.83;15.13;;;25.30;99.90;;;;;;5056067;28;20151;-61
2023/05/27 01:26:13;;;;;;;20.77;14.63;;;25.30;99.90;;;;;;5055375;28;20045;-61
2023/05/27 01:28:39;;;;;;;21.05;14.88;;;25.30;99.90;;;;;;5054664;28;20076;-61
2023/05/27 01:31:27;;;;;;;24.65;13.93;;;25.30;99.90;;;;;;5056290;28;20025;-60
2023/05/27 01:34:02;;;;;;;20.08;13.20;;;25.30;99.90;;;;;;5056316;28;20114;-60
2023/05/27 01:36:33;;;;;;;19.63;12.43;;;25.30;99.90;;;;;;5056310;28;20021;-61
2023/05/27 01:39:00;;;;;;;20.80;14.90;;;25.30;99.90;;;;;;5038142;28;20388;-60
2023/05/27 01:41:26;;;;;;;20.40;12.93;;;25.30;99.90;;;;;;5055906;28;20021;-62
2023/05/27 01:43:53;;;;;;;19.30;12.68;;;25.30;99.90;;;;;;5056004;28;20123;-59
2023/05/27 01:46:18;;;;;;;16.55;12.32;;;25.30;99.90;;;;;;5056323;28;20062;-60
2023/05/27 01:48:44;;;;;;;19.30;12.02;;;25.30;99.90;;;;;;5055741;28;20090;-60
2023/05/27 01:51:10;;;;;;;19.38;12.65;;;25.30;99.90;;;;;;5056165;28;20028;-60
2023/05/27 01:53:36;;;;;;;18.63;12.40;;;25.20;99.90;;;;;;5055835;28;20032;-59
2023/05/27 01:56:01;;;;;;;17.20;11.52;;;25.20;99.90;;;;;;5055867;28;20025;-59
2023/05/27 01:58:27;;;;;;;18.15;11.95;;;25.20;99.90;;;;;;5055652;28;20052;-60
2023/05/27 02:00:53;;;;;;;20.60;11.23;;;25.20;99.90;;;;;;5085083;22;20486;-51
2023/05/27 02:03:19;;;;;;;20.45;11.20;;;25.20;99.90;;;;;;5035516;28;20116;-50
2023/05/27 02:05:45;;;;;;;19.45;11.73;;;25.20;99.90;;;;;;5035693;28;20049;-51
2023/05/27 02:08:11;;;;;;;18.90;11.40;;;25.20;99.90;;;;;;5035621;28;20032;-50
2023/05/27 02:10:36;;;;;;;21.70;12.75;;;25.20;99.90;;;;;;5035731;28;20484;-50
2023/05/27 02:13:02;;;;;;;17.38;10.95;;;25.20;99.90;;;;;;5035463;28;20035;-51
2023/05/27 02:15:28;;;;;;;21.35;11.98;;;25.20;99.90;;;;;;5033434;28;20120;-50
2023/05/27 02:17:58;;;;;;;16.65;11.85;;;25.20;99.90;;;;;;5035474;28;20029;-50
2023/05/27 02:20:24;;;;;;;18.98;12.73;;;25.20;99.90;;;;;;5035555;28;20029;-49
2023/05/27 02:22:50;;;;;;;19.23;12.27;;;25.10;99.90;;;;;;5035358;28;20022;-49
2023/05/27 02:25:16;;;;;;;16.45;11.50;;;25.10;99.90;;;;;;5035351;28;20026;-51
2023/05/27 02:27:43;;;;;;;17.77;12.15;;;25.10;99.90;;;;;;5035197;28;20025;-50
2023/05/27 02:30:10;;;;;;;17.48;12.68;;;25.10;99.90;;;;;;5035338;28;20068;-49
2023/05/27 02:32:36;;;;;;;20.50;12.47;;;25.10;99.90;;;;;;5035677;28;20055;-50
2023/05/27 02:35:02;;;;;;;17.40;11.77;;;25.10;99.90;;;;;;5035318;28;20030;-50
2023/05/27 02:37:28;;;;;;;17.63;12.63;;;25.10;99.90;;;;;;5035205;28;20028;-49
2023/05/27 02:39:55;;;;;;;18.05;13.23;;;25.10;99.90;;;;;;5035164;28;20378;-50
2023/05/27 02:42:21;;;;;;;20.43;13.30;;;25.10;99.90;;;;;;5035195;28;20022;-49
2023/05/27 02:44:46;;;;;;;21.20;13.25;;;25.10;99.90;;;;;;5035175;28;20355;-49
2023/05/27 02:47:12;;;;;;;18.58;13.20;;;25.10;99.90;;;;;;5035011;28;20025;-49
2023/05/27 02:49:38;;;;;;;20.80;13.30;;;25.10;99.90;;;;;;5034705;28;20033;-49
2023/05/27 02:52:04;;;;;;;19.83;12.85;;;25.10;99.90;;;;;;5034791;28;20470;-50
2023/05/27 02:54:30;;;;;;;17.25;12.27;;;25.10;99.90;;;;;;5034729;28;20017;-50
2023/05/27 02:56:55;;;;;;;15.95;11.75;;;25.00;99.90;;;;;;5034705;28;20060;-50
2023/05/27 02:59:21;;;;;;;17.42;12.60;;;25.00;99.90;;;;;;5034597;28;20040;-50
2023/05/27 03:01:47;;;;;;;16.20;12.00;;;25.00;99.90;;;;;;5035011;28;20375;-50
2023/05/27 03:04:13;;;;;;;19.38;11.32;;;25.10;99.90;;;;;;5034666;28;20037;-50
2023/05/27 03:06:40;;;;;;;19.25;11.50;;;25.00;99.90;;;;;;5034494;28;20025;-49
2023/05/27 03:09:07;;;;;;;22.02;12.25;;;25.00;99.90;;;;;;5034575;28;20025;-49
2023/05/27 03:11:33;;;;;;;18.65;12.85;;;25.00;99.90;;;;;;5034708;28;20152;-49
2023/05/27 03:13:59;;;;;;;17.60;11.90;;;25.00;99.90;;;;;;5034488;28;20017;-49
2023/05/27 03:16:24;;;;;;;22.67;11.60;;;25.00;99.90;;;;;;5034286;28;20030;-50
2023/05/27 03:18:50;;;;;;;16.77;11.80;;;25.00;99.90;;;;;;5034096;28;20114;-51
2023/05/27 03:21:16;;;;;;;19.67;12.95;;;25.00;99.90;;;;;;5034310;28;20029;-50
2023/05/27 03:23:42;;;;;;;18.45;12.23;;;25.00;99.90;;;;;;5016727;28;20034;-51
2023/05/27 03:26:07;;;;;;;19.95;12.52;;;25.00;99.90;;;;;;5033833;28;20025;-51
2023/05/27 03:28:33;;;;;;;17.98;12.57;;;24.90;99.90;;;;;;5015949;28;20029;-50
2023/05/27 03:30:59;;;;;;;20.73;12.60;;;24.90;99.90;;;;;;5033977;28;20478;-51
2023/05/27 03:33:25;;;;;;;18.00;12.07;;;24.90;99.90;;;;;;5034213;28;20501;-50
2023/05/27 03:35:51;;;;;;;17.33;11.52;;;24.90;99.90;;;;;;5033858;28;20072;-50
2023/05/27 03:38:17;;;;;;;19.45;12.27;;;24.90;99.90;;;;;;5033656;28;20029;-49
2023/05/27 03:40:42;;;;;;;17.55;10.88;;;24.80;99.90;;;;;;5033798;28;20074;-50
2023/05/27 03:43:08;;;;;;;19.33;11.35;;;24.80;99.90;;;;;;5032402;28;20052;-50
2023/05/27 03:45:34;;;;;;;18.88;11.23;;;24.80;99.90;;;;;;5033584;28;20026;-50
2023/05/27 03:48:00;;;;;;;16.25;10.90;;;24.80;99.90;;;;;;5029732;28;20021;-49
2023/05/27 03:50:26;;;;;;;16.05;11.25;;;24.70;99.90;;;;;;5033423;28;20034;-50
2023/05/27 03:52:51;;;;;;;15.75;12.18;;;24.80;99.90;;;;;;5032181;28;20013;-49
2023/05/27 03:55:17;;;;;;;16.20;11.55;;;24.80;99.90;;;;;;5032906;28;20032;-50
2023/05/27 03:57:43;;;;;;;20.52;11.80;;;24.70;99.90;;;;;;5033402;28;20037;-50
2023/05/27 04:00:12;;;;;;;17.90;11.45;;;24.70;99.90;;;;;;5033270;28;20055;-49
2023/05/27 04:02:39;;;;;;;17.38;12.55;;;24.70;99.90;;;;;;5033095;28;20052;-51
2023/05/27 04:05:05;;;;;;;17.45;11.20;;;24.70;99.90;;;;;;5033278;28;20022;-50
2023/05/27 04:07:32;;;;;;;17.88;11.60;;;24.70;99.90;;;;;;5033169;28;20096;-49
2023/05/27 04:09:58;;;;;;;17.00;11.95;;;24.70;99.90;;;;;;5031979;28;20029;-50
2023/05/27 04:12:24;;;;;;;17.42;11.65;;;24.70;99.90;;;;;;5033227;28;20536;-50
2023/05/27 04:14:50;;;;;;;20.27;10.88;;;24.70;99.90;;;;;;5033318;28;20527;-50
2023/05/27 04:17:17;;;;;;;17.27;11.77;;;24.70;99.90;;;;;;5031528;28;20052;-50
2023/05/27 04:19:43;;;;;;;17.10;11.15;;;24.70;99.90;;;;;;5032784;28;20026;-50
2023/05/27 04:22:09;;;;;;;15.00;10.77;;;24.70;99.90;;;;;;5033032;28;20026;-51
2023/05/27 04:24:34;;;;;;;13.57;9.48;;;24.70;99.90;;;;;;5032985;28;20033;-51
2023/05/27 04:27:02;;;;;;;17.67;9.82;;;24.60;99.90;;;;;;5033140;28;20382;-51
2023/05/27 04:29:28;;;;;;;13.65;9.63;;;24.60;99.90;;;;;;5032989;28;20465;-51
2023/05/27 04:31:56;;;;;;;16.65;10.07;;;24.60;99.90;;;;;;5033063;28;20075;-52
2023/05/27 04:34:22;;;;;;;17.20;10.27;;;24.60;99.90;;;;;;5032901;28;20021;-51
2023/05/27 04:36:49;;;;;;;14.43;9.60;;;24.60;99.90;;;;;;5033154;28;20060;-51
2023/05/27 04:39:16;;;;;;;17.15;10.73;;;24.60;99.90;;;;;;5017590;28;20045;-51
2023/05/27 04:41:42;;;;;;;11.13;8.85;;;24.60;99.90;;;;;;5036858;28;20022;-50
2023/05/27 04:44:08;;;;;;;14.23;9.00;;;24.60;99.90;;;;;;5037001;28;20034;-51
2023/05/27 04:46:34;;;;;;;16.10;9.68;;;24.50;99.90;;;;;;5036854;28;20030;-50
2023/05/27 04:49:00;;;;;;;12.75;9.02;;;24.50;99.90;;;;;;5035607;28;20041;-51
2023/05/27 04:51:26;;;;;;;13.80;8.90;;;24.50;99.90;;;;;;5036778;28;20022;-50
2023/05/27 04:53:54;;;;;;;12.85;9.15;;;24.60;99.90;;;;;;5036396;28;20376;-50
2023/05/27 04:56:19;;;;;;;13.68;8.88;;;24.50;99.90;;;;;;5036883;28;20021;-50
2023/05/27 04:58:49;;;;;;;13.43;9.43;;;24.50;99.90;;;;;;5036477;28;20132;-50
2023/05/27 05:01:20;;;;;;;11.57;8.38;;;24.50;99.90;;;;;;5036474;28;20044;-50
2023/05/27 05:03:52;;;;;;;16.08;8.52;;;24.50;99.90;;;;;;5036393;28;20052;-50
2023/05/27 05:06:22;;;;;;;11.80;8.40;;;24.50;99.90;;;;;;5036567;28;20045;-50
2023/05/27 05:08:48;;;;;;;15.43;9.02;;;24.50;99.90;;;;;;5036423;28;20017;-51
2023/05/27 05:11:14;;;;;;;9.77;8.18;;;24.50;99.90;;;;;;5036703;28;20026;-50
2023/05/27 05:13:40;;;;;;;11.30;8.07;;;24.50;99.90;;;;;;5036213;28;20018;-50
2023/05/27 05:16:06;;;;;;;11.82;7.57;;;24.50;99.90;;;;;;5036424;28;20079;-51
2023/05/27 05:18:32;;;;;;;10.35;7.78;;;24.50;99.90;;;;;;5036080;28;20047;-50
2023/05/27 05:20:58;;;;;;;12.73;8.32;;;24.40;99.90;;;;;;5036384;28;20104;-50
2023/05/27 05:23:23;;;;;;;10.43;8.20;;;24.40;99.90;;;;;;5036200;28;20531;-50
2023/05/27 05:25:54;;;;;;;10.82;7.55;;;24.40;99.90;;;;;;5036150;28;20026;-50
2023/05/27 05:28:20;;;;;;;11.15;8.60;;;24.40;99.90;;;;;;5036047;28;20026;-50
2023/05/27 05:30:46;;;;;;;10.65;7.88;;;24.40;99.90;;;;;;5034768;28;20025;-49
2023/05/27 05:33:12;;;;;;;13.38;8.73;;;24.40;99.90;;;;;;5035824;28;20033;-50
2023/05/27 05:35:38;;;;;;;13.13;8.60;;;24.40;99.90;;;;;;5034796;28;20029;-50
2023/05/27 05:38:03;;;;;;;10.98;8.32;;;24.40;99.90;;;;;;5034735;28;20040;-50
2023/05/27 05:40:29;;;;;;;10.50;8.18;;;24.40;99.90;;;;;;5035853;28;20032;-50
2023/05/27 05:42:55;;;;;;;11.75;8.32;;;24.40;99.90;;;;;;5034730;28;20042;-55
2023/05/27 05:45:21;;;;;;;11.70;8.30;;;24.40;99.90;;;;;;5035875;28;20045;-51
2023/05/27 05:47:46;;;;;;;10.20;7.57;;;24.40;99.90;;;;;;5035838;28;20100;-51
2023/05/27 05:50:12;;;;;;;11.40;8.30;;;24.40;99.90;;;;;;5030096;28;20075;-51
2023/05/27 05:52:39;;;;;;;12.25;8.93;;;24.40;99.90;;;;;;5035655;28;20019;-50
2023/05/27 05:55:05;;;;;;;11.38;8.30;;;24.40;99.90;;;;;;5035699;28;20025;-51
2023/05/27 05:57:32;;;;;;;11.07;7.23;;;24.40;99.90;;;;;;5035466;28;20024;-51
2023/05/27 05:59:58;;;;;;;11.65;8.38;;;24.40;99.90;;;;;;5035792;28;20033;-50
2023/05/27 06:02:25;;;;;;;11.50;7.57;;;24.40;99.90;;;;;;5035110;28;20493;-50
2023/05/27 06:04:51;;;;;;;10.77;7.10;;;24.40;99.90;;;;;;5035633;28;20029;-50
2023/05/27 06:07:17;;;;;;;9.00;7.13;;;24.40;99.90;;;;;;5035273;28;20029;-50
2023/05/27 06:09:42;;;;;;;13.02;7.75;;;24.40;99.90;;;;;;5035476;28;20095;-51
2023/05/27 06:12:08;;;;;;;10.23;7.82;;;24.40;99.90;;;;;;5035094;28;20021;-50
2023/05/27 06:14:34;;;;;;;9.93;7.00;;;24.40;99.90;;;;;;5035522;28;20071;-51
2023/05/27 06:17:00;;;;;;;11.23;7.15;;;24.40;99.90;;;;;;5035130;28;20022;-51
2023/05/27 06:19:26;;;;;;;12.02;7.43;;;24.40;99.90;;;;;;5033725;28;20037;-51
2023/05/27 06:21:51;;;;;;;10.88;7.57;;;24.40;99.90;;;;;;5035229;28;20032;-51
2023/05/27 06:24:19;;;;;;;8.80;6.70;;;24.40;99.90;;;;;;5035080;28;20030;-51
2023/05/27 06:26:45;;;;;;;9.52;6.88;;;24.40;99.90;;;;;;5033704;28;20029;-49
2023/05/27 06:29:11;;;;;;;9.52;6.03;;;24.40;99.90;;;;;;5034952;28;20030;-51
2023/05/27 06:31:37;;;;;;;12.57;8.02;;;24.40;99.90;;;;;;5034964;28;20022;-51
2023/05/27 06:34:03;;;;;;;8.77;6.63;;;24.40;99.90;;;;;;5034835;28;20100;-51
2023/05/27 06:36:28;;;;;;;9.90;6.60;;;24.40;99.90;;;;;;5034924;28;20430;-54
2023/05/27 06:38:54;;;;;;;9.07;6.85;;;24.40;99.90;;;;;;5034739;28;20029;-49
2023/05/27 06:41:20;;;;;;;9.02;7.00;;;24.40;99.90;;;;;;5033578;28;20021;-51
2023/05/27 06:43:46;;;;;;;11.10;7.13;;;24.40;99.90;;;;;;5034461;28;20025;-51
2023/05/27 06:46:12;;;;;;;10.25;6.70;;;24.40;99.90;;;;;;5034547;28;20072;-51
2023/05/27 06:48:37;;;;;;;12.18;7.05;;;24.40;99.90;;;;;;5034663;28;20485;-51
2023/05/27 06:51:06;;;;;;;8.88;6.65;;;24.40;99.90;;;;;;5034568;28;20040;-51
2023/05/27 06:53:31;;;;;;;9.02;6.57;;;24.40;99.90;;;;;;5033273;28;20099;-51
2023/05/27 06:55:57;;;;;;;10.40;6.97;;;24.40;99.90;;;;;;5034498;28;20017;-51
2023/05/27 06:58:23;;;;;;;9.07;6.88;;;24.30;99.90;;;;;;5034519;28;20388;-51
2023/05/27 07:00:49;;;;;;;10.13;7.25;;;24.40;99.90;;;;;;5032339;28;20041;-53
2023/05/27 07:03:15;;;;;;;11.18;7.68;;;24.40;99.90;;;;;;5034499;28;20478;-52
2023/05/27 07:05:40;;;;;;;10.63;7.30;;;24.30;99.90;;;;;;5032962;28;20030;-52
2023/05/27 07:08:06;;;;;;;11.20;7.13;;;24.40;99.90;;;;;;5034438;28;20025;-52
2023/05/27 07:10:32;;;;;;;12.27;7.47;;;24.40;99.90;;;;;;5034001;28;20104;-51
2023/05/27 07:12:58;;;;;;;12.10;7.75;;;24.40;99.90;;;;;;5034307;28;20049;-51
2023/05/27 07:15:27;;;;;;;10.25;7.43;;;24.40;99.90;;;;;;5033893;28;20053;-52
2023/05/27 07:17:52;;;;;;;10.65;7.25;;;24.40;99.90;;;;;;5034017;28;20029;-50
2023/05/27 07:20:18;;;;;;;11.93;7.70;;;24.40;99.90;;;;;;5032795;28;20026;-50
2023/05/27 07:22:44;;;;;;;10.85;7.43;;;24.40;99.90;;;;;;5033875;28;20029;-50
2023/05/27 07:25:10;;;;;;;11.45;8.10;;;24.40;99.90;;;;;;5033919;28;20108;-50
2023/05/27 07:27:36;;;;;;;11.75;8.90;;;24.30;99.90;;;;;;5033810;28;20029;-50
2023/05/27 07:30:02;;;;;;;11.43;7.82;;;24.40;99.90;;;;;;5032458;28;20033;-50
2023/05/27 07:32:28;;;;;;;13.60;8.88;;;24.40;99.90;;;;;;5030900;28;20075;-50
2023/05/27 07:34:55;;;;;;;11.27;8.15;;;24.40;99.90;;;;;;5033711;28;20099;-50
2023/05/27 07:37:23;;;;;;;14.38;9.70;;;24.40;99.90;;;;;;5033478;28;20018;-50
2023/05/27 07:39:50;;;;;;;13.57;9.43;;;24.40;99.90;;;;;;5033565;28;20045;-50
2023/05/27 07:42:17;;;;;;;12.18;8.77;;;24.40;99.90;;;;;;5033266;28;20018;-50
2023/05/27 07:44:42;;;;;;;13.65;9.50;;;24.40;99.90;;;;;;5033803;28;20359;-51
2023/05/27 07:47:08;;;;;;;13.40;9.82;;;24.40;99.90;;;;;;5032999;28;20023;-49
2023/05/27 07:49:34;;;;;;;11.50;8.77;;;24.40;99.90;;;;;;5032645;28;20044;-51
2023/05/27 07:52:00;;;;;;;12.65;9.10;;;24.40;99.90;;;;;;5033044;28;20368;-50
2023/05/27 07:54:26;;;;;;;12.18;9.35;;;24.40;99.90;;;;;;5020094;28;20507;-51
2023/05/27 07:56:53;;;;;;;8.60;5.20;;;24.40;99.90;;;;;;5033427;28;20385;-49
2023/05/27 07:59:19;;;;;;;7.70;3.78;;;24.40;99.90;;;;;;5032954;28;20358;-49
2023/05/27 08:01:45;;;;;;;7.20;3.05;;;24.30;99.90;;;;;;5033245;28;20107;-47
2023/05/27 08:04:10;;;;;;;8.93;3.20;;;24.30;99.90;;;;;;5032829;28;20071;-47
2023/05/27 08:06:36;;;;;;;6.95;2.83;;;24.20;99.90;;;;;;5031965;28;20033;-47
2023/05/27 08:09:03;;;;;;;4.40;2.58;;;24.10;99.90;;;;;;5032934;28;20017;-46
2023/05/27 08:11:30;;;;;;;9.25;3.05;;;24.10;99.90;;;;;;5032237;28;20061;-47
2023/05/27 08:13:55;;;;;;;8.27;2.95;;;24.00;99.90;;;;;;5031989;28;20036;-48
2023/05/27 08:16:21;;;;;;;6.85;2.67;;;23.90;99.90;;;;;;5033364;28;20030;-48
2023/05/27 08:18:47;;;;;;;7.40;2.63;;;23.90;99.90;;;;;;5032238;28;20033;-49
2023/05/27 08:21:13;;;;;;;12.50;3.72;;;23.80;99.90;;;;;;4995675;28;20022;-48
2023/05/27 08:23:39;;;;;;;4.65;2.60;;;23.70;99.90;;;;;;5031973;28;20029;-48
2023/05/27 08:26:05;;;;;;;13.13;3.20;;;23.70;99.90;;;;;;5032761;28;20026;-48
2023/05/27 08:28:34;;;;;;;7.47;3.03;;;23.70;99.90;;;;;;5032959;28;20033;-48
2023/05/27 08:31:00;;;;;;;18.25;3.63;;;23.70;99.90;;;;;;5032468;28;20029;-47
2023/05/27 08:33:26;;;;;;;11.32;3.13;;;23.60;99.90;;;;;;5031522;28;20049;-45
2023/05/27 08:35:52;;;;;;;9.30;3.05;;;23.60;99.90;;;;;;5030010;28;20470;-44
2023/05/27 08:38:18;;;;;;;8.88;3.05;;;23.60;99.90;;;;;;5031527;28;20071;-42
2023/05/27 08:40:44;;;;;;;5.65;2.22;;;23.60;99.90;;;;;;5026905;28;20393;-47
2023/05/27 08:43:10;;;;;;;8.48;2.63;;;23.60;99.90;;;;;;5032137;28;20116;-47
2023/05/27 08:45:36;;;;;;;9.73;2.55;;;23.50;99.90;;;;;;5031409;28;20116;-47
2023/05/27 08:48:03;;;;;;;5.07;2.55;;;23.50;99.90;;;;;;5030890;28;20018;-47
2023/05/27 08:50:28;;;;;;;6.40;2.60;;;23.60;99.90;;;;;;5031038;28;20041;-47
2023/05/27 08:52:55;;;;;;;5.97;2.22;;;23.50;99.90;;;;;;5031246;28;20029;-48
2023/05/27 08:55:22;;;;;;;4.75;2.47;;;23.50;99.90;;;;;;5031671;28;20041;-49
2023/05/27 08:57:58;;;;;;;11.15;2.85;;;23.50;99.90;;;;;;5032558;28;20547;-49
2023/05/27 09:00:25;;;;;;;5.88;2.92;;;23.50;99.90;;;;;;5031709;28;20036;-49
2023/05/27 09:02:54;;;;;;;11.85;3.28;;;23.50;99.90;;;;;;5031847;28;20101;-48
2023/05/27 09:05:20;;;;;;;11.80;3.03;;;23.40;99.90;;;;;;5031395;28;20034;-48
2023/05/27 09:07:46;;;;;;;9.10;3.40;;;23.40;99.90;;;;;;5035377;28;20025;-48
2023/05/27 09:10:12;;;;;;;13.10;3.83;;;23.40;99.90;;;;;;5032150;28;20033;-49
2023/05/27 09:12:38;;;;;;;11.32;3.38;;;23.40;99.90;;;;;;5035228;28;20367;-49
2023/05/27 09:15:04;;;;;;;6.82;3.45;;;23.40;99.90;;;;;;5022781;28;20040;-48
2023/05/27 09:17:30;;;;;;;8.63;3.17;;;23.30;99.90;;;;;;5043453;28;20561;-49
2023/05/27 09:19:56;;;;;;;9.23;3.33;;;23.30;99.90;;;;;;5031248;28;20061;-48
2023/05/27 09:22:28;;;;;;;11.70;3.60;;;23.30;99.90;;;;;;5032088;28;20037;-48
2023/05/27 09:24:56;;;;;;;8.98;3.63;;;23.20;99.90;;;;;;5035211;28;20045;-49
2023/05/27 09:27:26;;;;;;;8.93;3.53;;;23.20;99.90;;;;;;5034671;28;20052;-51
2023/05/27 09:29:52;;;;;;;9.98;3.10;;;23.20;99.90;;;;;;5032795;28;20021;-51
2023/05/27 09:32:28;;;;;;;9.07;3.22;;;23.20;99.90;;;;;;5040320;28;20036;-50
2023/05/27 09:35:01;;;;;;;7.18;3.58;;;23.30;99.90;;;;;;5035289;28;20477;-52
2023/05/27 09:37:32;;;;;;;8.23;4.47;;;23.30;99.90;;;;;;5038064;28;20029;-52
2023/05/27 09:40:09;;;;;;;11.80;3.38;;;23.30;99.90;;;;;;5032866;28;20041;-52
2023/05/27 09:42:46;;;;;;;7.20;3.58;;;23.40;99.90;;;;;;5045084;28;20032;-53
2023/05/27 09:45:14;;;;;;;7.10;4.20;;;23.40;99.90;;;;;;5017406;28;20029;-54
2023/05/27 09:47:42;;;;;;;11.00;3.97;;;23.50;99.90;;;;;;5038885;28;20477;-53
2023/05/27 09:50:11;;;;;;;;;;;23.50;99.90;;;;;;5025290;28;20036;-53
2023/05/27 09:52:39;;;;;;;7.78;4.22;;;23.60;99.90;;;;;;5034690;28;19905;-53
2023/05/27 09:55:07;;;;;;;16.83;7.65;;;23.60;99.90;;;;;;5035091;28;20025;-53
2023/05/27 09:57:34;;;;;;;13.52;7.70;;;23.70;99.90;;;;;;5034194;28;20021;-54
2023/05/27 10:00:27;;;;;;;17.85;9.93;;;23.70;99.90;;;;;;5034651;28;20034;-54
2023/05/27 10:02:51;;;;;;;14.88;8.88;;;23.70;99.90;;;;;;5045209;28;20061;-54
2023/05/27 10:05:20;;;;;;;16.02;9.48;;;23.80;99.90;;;;;;5020747;28;20156;-54
2023/05/27 10:07:46;;;;;;;21.30;13.10;;;23.80;99.90;;;;;;5034372;28;20362;-55
2023/05/27 10:10:17;;;;;;;18.30;11.63;;;23.80;99.90;;;;;;5042518;28;20496;-55
2023/05/27 10:12:49;;;;;;;20.70;12.23;;;23.80;99.90;;;;;;5018423;28;20022;-53
2023/05/27 10:15:27;;;;;;;18.52;12.50;;;23.90;99.90;;;;;;5037199;28;20029;-51
2023/05/27 10:17:57;;;;;;;18.77;12.30;;;23.90;99.90;;;;;;5034089;28;20033;-53
2023/05/27 10:20:32;;;;;;;18.60;12.20;;;23.90;99.90;;;;;;5034265;28;20033;-53
2023/05/27 10:23:11;;;;;;;19.88;12.73;;;23.90;99.90;;;;;;5043979;28;20026;-55
2023/05/27 10:25:48;;;;;;;20.52;13.50;;;24.00;99.90;;;;;;5034207;28;20049;-54
2023/05/27 10:28:35;;;;;;;23.00;12.88;;;24.00;99.90;;;;;;5033982;28;20026;-55
2023/05/27 10:31:04;;;;;;;;;;;24.00;99.90;;;;;;5018014;28;20489;-55
2023/05/27 10:33:31;;;;;;;18.88;12.43;;;24.00;99.90;;;;;;5034467;28;20269;-55
2023/05/27 10:36:02;;;;;;;21.20;13.20;;;24.00;99.90;;;;;;5033366;28;20025;-55
2023/05/27 10:38:28;;;;;;;19.02;11.88;;;24.10;99.90;;;;;;5050998;28;20041;-55
2023/05/27 10:41:00;;;;;;;18.52;12.27;;;24.10;99.90;;;;;;5033985;28;20071;-54
2023/05/27 10:43:27;;;;;;;17.92;11.43;;;24.10;99.90;;;;;;5033995;28;20120;-55
2023/05/27 10:46:03;;;;;;;22.02;11.75;;;24.10;99.90;;;;;;5033963;28;20037;-55
2023/05/27 10:48:29;;;;;;;19.75;11.50;;;24.10;99.90;;;;;;5044346;28;20029;-56
2023/05/27 10:50:58;;;;;;;19.70;9.85;;;24.10;99.90;;;;;;5033534;28;20040;-55
2023/05/27 10:53:27;;;;;;;17.60;10.55;;;24.20;99.90;;;;;;5015974;28;20033;-55
2023/05/27 10:55:53;;;;;;;16.30;9.75;;;24.20;99.90;;;;;;5037586;28;20025;-56
2023/05/27 10:58:20;;;;;;;16.08;9.90;;;24.20;99.90;;;;;;5039703;28;20025;-56
2023/05/27 11:00:51;;;;;;;15.27;9.23;;;24.20;99.90;;;;;;5014570;28;20048;-56
2023/05/27 11:03:18;;;;;;;15.32;8.90;;;24.20;99.90;;;;;;5033285;28;20123;-55
2023/05/27 11:05:44;;;;;;;17.33;9.85;;;24.20;99.90;;;;;;5033439;28;20017;-57
2023/05/27 11:08:13;;;;;;;18.95;8.75;;;24.30;99.90;;;;;;5032765;28;20363;-56
2023/05/27 11:10:42;;;;;;;16.15;9.68;;;24.30;99.90;;;;;;5032256;28;20036;-56
2023/05/27 11:13:08;;;;;;;15.10;8.38;;;24.30;99.90;;;;;;5044617;28;20060;-54
2023/05/27 11:15:34;;;;;;;17.38;8.60;;;24.30;99.90;;;;;;5032609;28;20477;-55
2023/05/27 11:18:03;;;;;;;16.20;8.98;;;24.30;99.90;;;;;;5044488;28;20033;-55
2023/05/27 11:20:36;;;;;;;17.90;9.40;;;24.30;99.90;;;;;;5040639;28;20109;-54
2023/05/27 11:23:02;;;;;;;96.57;62.97;;;24.40;99.90;;;;;;5014538;28;20040;-54
2023/05/27 11:25:28;;;;;;;60.88;29.83;;;24.40;99.90;;;;;;5015526;28;20393;-54
2023/05/27 11:27:54;;;;;;;59.17;20.80;;;24.40;99.90;;;;;;5032997;28;20100;-53
2023/05/27 11:30:24;;;;;;;29.80;12.43;;;24.40;99.90;;;;;;5032726;28;20109;-53
2023/05/27 11:32:50;;;;;;;21.80;8.43;;;24.40;99.90;;;;;;5032817;28;20040;-54
2023/05/27 11:35:17;;;;;;;19.25;8.27;;;24.40;99.90;;;;;;5032399;28;20104;-54
2023/05/27 11:37:52;;;;;;;19.02;5.13;;;24.40;99.90;;;;;;5043110;28;20040;-52
2023/05/27 11:40:18;;;;;;;14.32;5.18;;;24.40;99.90;;;;;;5030805;28;20088;-52
2023/05/27 11:42:46;;;;;;;17.83;5.82;;;24.40;99.90;;;;;;5032601;28;20033;-54
2023/05/27 11:45:21;;;;;;;16.13;5.68;;;24.40;99.90;;;;;;5032015;28;20030;-56
2023/05/27 11:47:50;;;;;;;17.05;6.47;;;24.40;99.90;;;;;;5031857;28;20091;-52
2023/05/27 11:50:18;;;;;;;21.85;8.32;;;24.40;99.90;;;;;;5029704;28;20021;-51
2023/05/27 11:52:52;;;;;;;18.40;6.95;;;24.40;99.90;;;;;;5025974;28;20013;-50
2023/05/27 11:55:18;;;;;;;18.17;5.32;;;24.40;99.90;;;;;;5033862;28;20029;-51
2023/05/27 11:57:43;;;;;;;21.70;7.90;;;24.40;99.90;;;;;;5032286;28;20942;-54
2023/05/27 12:00:10;;;;;;;15.48;6.93;;;24.40;99.90;;;;;;5032116;28;20067;-54
2023/05/27 12:02:36;;;;;;;15.75;6.65;;;24.40;99.90;;;;;;4997342;28;20056;-53
2023/05/27 12:05:02;;;;;;;16.40;7.32;;;24.40;99.90;;;;;;4998547;28;20381;-54
2023/05/27 12:07:28;;;;;;;18.35;7.80;;;24.40;99.90;;;;;;5014287;28;20363;-51
2023/05/27 12:09:54;;;;;;;23.25;7.78;;;24.40;99.90;;;;;;5032611;28;20026;-51
2023/05/27 12:12:20;;;;;;;17.15;7.25;;;24.40;99.90;;;;;;5032066;28;20052;-53
2023/05/27 12:14:46;;;;;;;23.90;8.05;;;24.40;99.90;;;;;;5031586;28;20032;-52
2023/05/27 12:17:11;;;;;;;16.58;7.28;;;24.40;99.90;;;;;;5032390;28;20017;-53
2023/05/27 12:19:37;;;;;;;17.45;8.48;;;24.50;99.90;;;;;;5011185;28;20038;-54
2023/05/27 12:22:03;;;;;;;22.25;8.35;;;24.50;99.90;;;;;;5031795;28;20045;-53
2023/05/27 12:24:29;;;;;;;19.13;8.25;;;24.50;99.90;;;;;;5032268;28;20029;-54
2023/05/27 12:26:54;;;;;;;15.38;7.60;;;24.50;99.90;;;;;;5032115;28;20068;-55
2023/05/27 12:29:24;;;;;;;15.45;7.40;;;24.50;99.90;;;;;;5031735;28;20021;-53
2023/05/27 12:31:50;;;;;;;17.83;8.98;;;24.50;99.90;;;;;;5031449;28;20055;-55
2023/05/27 12:34:16;;;;;;;14.05;7.63;;;24.50;99.90;;;;;;5032243;28;20025;-55
2023/05/27 12:36:42;;;;;;;11.90;7.75;;;24.50;99.90;;;;;;5032276;28;20653;-55